地図

経路データ

SID SEASON NUMBER BASIN SUBBASIN NAME ISO_TIME NATURE LAT LON WMO_WIND WMO_PRES WMO_AGENCY TRACK_TYPE DIST2LAND LANDFALL IFLAG USA_AGENCY USA_ATCF_ID USA_LAT USA_LON USA_RECORD USA_STATUS USA_WIND USA_PRES USA_SSHS USA_R34_NE USA_R34_SE USA_R34_SW USA_R34_NW USA_R50_NE USA_R50_SE USA_R50_SW USA_R50_NW USA_R64_NE USA_R64_SE USA_R64_SW USA_R64_NW USA_POCI USA_ROCI USA_RMW USA_EYE TOKYO_LAT TOKYO_LON TOKYO_GRADE TOKYO_WIND TOKYO_PRES TOKYO_R50_DIR TOKYO_R50_LONG TOKYO_R50_SHORT TOKYO_R30_DIR TOKYO_R30_LONG TOKYO_R30_SHORT TOKYO_LAND CMA_LAT CMA_LON CMA_CAT CMA_WIND CMA_PRES HKO_LAT HKO_LON HKO_CAT HKO_WIND HKO_PRES NEWDELHI_LAT NEWDELHI_LON NEWDELHI_GRADE NEWDELHI_WIND NEWDELHI_PRES NEWDELHI_CI NEWDELHI_DP NEWDELHI_POCI REUNION_LAT REUNION_LON REUNION_TYPE REUNION_WIND REUNION_PRES REUNION_TNUM REUNION_CI REUNION_RMW REUNION_R34_NE REUNION_R34_SE REUNION_R34_SW REUNION_R34_NW REUNION_R50_NE REUNION_R50_SE REUNION_R50_SW REUNION_R50_NW REUNION_R64_NE REUNION_R64_SE REUNION_R64_SW REUNION_R64_NW BOM_LAT BOM_LON BOM_TYPE BOM_WIND BOM_PRES BOM_TNUM BOM_CI BOM_RMW BOM_R34_NE BOM_R34_SE BOM_R34_SW BOM_R34_NW BOM_R50_NE BOM_R50_SE BOM_R50_SW BOM_R50_NW BOM_R64_NE BOM_R64_SE BOM_R64_SW BOM_R64_NW BOM_ROCI BOM_POCI BOM_EYE BOM_POS_METHOD BOM_PRES_METHOD NADI_LAT NADI_LON NADI_CAT NADI_WIND NADI_PRES WELLINGTON_LAT WELLINGTON_LON WELLINGTON_WIND WELLINGTON_PRES DS824_LAT DS824_LON DS824_STAGE DS824_WIND DS824_PRES TD9636_LAT TD9636_LON TD9636_STAGE TD9636_WIND TD9636_PRES TD9635_LAT TD9635_LON TD9635_WIND TD9635_PRES TD9635_ROCI NEUMANN_LAT NEUMANN_LON NEUMANN_CLASS NEUMANN_WIND NEUMANN_PRES MLC_LAT MLC_LON MLC_CLASS MLC_WIND MLC_PRES USA_GUST BOM_GUST BOM_GUST_PER REUNION_GUST REUNION_GUST_PER USA_SEAHGT USA_SEARAD_NE USA_SEARAD_SE USA_SEARAD_SW USA_SEARAD_NW STORM_SPEED STORM_DIR
2009222N09262 2009 49 EP MM GUILLERMO 2009-08-09 18:00:00 NR 9.50000 -97.8000 main 695 688 O_____________ jtwc_ep EP102009 9.50000 -97.8000 DB 25 1010 -3 19 286
2009222N09262 2009 49 EP MM GUILLERMO 2009-08-09 21:00:00 NR 9.76053 -98.7097 main 688 688 P_____________ EP102009 9.76053 -98.7097 DB 25 1010 -3 18 286
2009222N09262 2009 49 EP MM GUILLERMO 2009-08-10 00:00:00 NR 10.0000 -99.6000 main 699 695 O_____________ jtwc_ep EP102009 10.0000 -99.6000 DB 25 1010 -3 18 285
2009222N09262 2009 49 EP MM GUILLERMO 2009-08-10 03:00:00 NR 10.2072 -100.458 main 712 709 P_____________ EP102009 10.2072 -100.458 DB 25 1010 -3 17 283
2009222N09262 2009 49 EP MM GUILLERMO 2009-08-10 06:00:00 NR 10.4000 -101.300 main 722 722 O_____________ jtwc_ep EP102009 10.4000 -101.300 DB 25 1010 -3 16 281
2009222N09262 2009 49 EP MM GUILLERMO 2009-08-10 09:00:00 NR 10.5158 -102.017 main 737 734 P_____________ EP102009 10.5158 -102.017 DB 25 1010 -3 17 283
2009222N09262 2009 49 EP MM GUILLERMO 2009-08-10 12:00:00 NR 10.8000 -103.000 main 750 740 O_____________ jtwc_ep EP102009 10.8000 -103.000 DB 25 1010 -3 29 291
2009222N09262 2009 49 EP MM GUILLERMO 2009-08-10 15:00:00 NR 11.5833 -104.776 main 752 737 P_____________ EP102009 11.5833 -104.776 DB 25 1010 -3 38 294
2009222N09262 2009 49 EP MM GUILLERMO 2009-08-10 18:00:00 NR 12.3000 -106.500 main 744 744 O_____________ jtwc_ep EP102009 12.3000 -106.500 DB 25 1010 -3 1012 200 30 26 288
2009222N09262 2009 49 EP MM GUILLERMO 2009-08-10 21:00:00 NR 12.3955 -107.324 main 775 775 P_____________ EP102009 12.3955 -107.324 DB 25 1010 -3 1012 200 30 13 270
2009222N09262 2009 49 EP MM GUILLERMO 2009-08-11 00:00:00 NR 12.3000 -107.800 main 814 814 O_____________ jtwc_ep EP102009 12.3000 -107.800 DB 25 1010 -3 1012 200 30 11 269
2009222N09262 2009 49 EP MM GUILLERMO 2009-08-11 03:00:00 NR 12.3774 -108.422 main 843 843 P_____________ EP102009 12.3774 -108.422 DB 25 1009 -3 1012 200 30 12 280
2009222N09262 2009 49 EP MM GUILLERMO 2009-08-11 06:00:00 NR 12.5000 -109.000 main 874 874 O_____________ jtwc_ep EP102009 12.5000 -109.000 DB 25 1009 -3 1012 200 30 11 283
2009222N09262 2009 49 EP MM GUILLERMO 2009-08-11 09:00:00 NR 12.6273 -109.508 main 893 890 P_____________ EP102009 12.6273 -109.508 DB 25 1009 -3 1012 200 30 10 287
2009222N09262 2009 49 EP MM GUILLERMO 2009-08-11 12:00:00 NR 12.8000 -110.000 main 906 904 O_____________ jtwc_ep EP102009 12.8000 -110.000 DB 25 1009 -3 1012 200 30 11 292
2009222N09262 2009 49 EP MM GUILLERMO 2009-08-11 15:00:00 NR 13.0349 -110.535 main 923 921 P_____________ EP102009 13.0349 -110.535 DB 25 1009 -3 1012 200 35 12 295
2009222N09262 2009 49 EP MM GUILLERMO 2009-08-11 18:00:00 NR 13.3000 -111.100 main 942 942 O_____________ jtwc_ep EP102009 13.3000 -111.100 DB 25 1009 -3 1012 200 40 12 295
2009222N09262 2009 49 EP MM GUILLERMO 2009-08-11 21:00:00 NR 13.5422 -111.663 main 972 964 P_____________ EP102009 13.5422 -111.663 DB 25 1009 -3 1012 200 40 13 293
2009222N09262 2009 49 EP MM GUILLERMO 2009-08-12 00:00:00 DS 13.8000 -112.300 25 1009 hurdat_epa main 995 995 O_____________ hurdat_epa EP102009 13.8000 -112.300 LO 25 1009 -3 1012 200 40 15 292
2009222N09262 2009 49 EP MM GUILLERMO 2009-08-12 03:00:00 DS 14.0964 -113.074 main 1037 1030 P_____________ EP102009 14.0924 -113.063 LO 25 1008 -3 1012 200 40 17 291
2009222N09262 2009 49 EP MM GUILLERMO 2009-08-12 06:00:00 DS 14.4000 -113.900 25 1008 hurdat_epa main 1035 1029 O_____________ hurdat_epa EP102009 14.4000 -113.900 LO 25 1008 -3 1012 200 40 17 290
2009222N09262 2009 49 EP MM GUILLERMO 2009-08-12 09:00:00 DS 14.6999 -114.758 main 1047 1042 P_____________ EP102009 14.6999 -114.758 LO 27 1007 -3 1012 187 50 18 290
2009222N09262 2009 49 EP MM GUILLERMO 2009-08-12 12:00:00 TS 15.0000 -115.600 30 1006 hurdat_epa main 1061 1058 O_____________ hurdat_epa EP102009 15.0000 -115.600 TD 30 1006 -1 1012 175 60 40 17 291
2009222N09262 2009 49 EP MM GUILLERMO 2009-08-12 15:00:00 TS 15.3072 -116.373 main 1083 1081 P_____________ EP102009 15.3072 -116.373 TD 30 1005 -1 1012 175 55 16 293
2009222N09262 2009 49 EP MM GUILLERMO 2009-08-12 18:00:00 TS 15.6000 -117.100 30 1005 hurdat_epa main 1105 1105 O_____________ hurdat_epa EP102009 15.6000 -117.100 TD 30 1005 -1 1012 175 50 40 15 292
2009222N09262 2009 49 EP MM GUILLERMO 2009-08-12 21:00:00 TS 15.8647 -117.808 main 1131 1131 P_____________ EP102009 15.8647 -117.808 TD 32 1004 -1 1012 175 50 14 290
2009222N09262 2009 49 EP MM GUILLERMO 2009-08-13 00:00:00 TS 16.1000 -118.500 35 1004 hurdat_epa main 1169 1169 O_____________ hurdat_epa EP102009 16.1000 -118.500 TS 35 1004 0 75 75 60 1012 175 50 45 14 288
2009222N09262 2009 49 EP MM GUILLERMO 2009-08-13 03:00:00 TS 16.3123 -119.208 main 1194 1194 P_____________ EP102009 16.3148 -119.208 TS 40 1001 0 75 75 67 1010 175 37 14 287
2009222N09262 2009 49 EP MM GUILLERMO 2009-08-13 06:00:00 TS 16.5000 -119.900 45 999 hurdat_epa main 1223 1223 O_____________ hurdat_epa EP102009 16.5000 -119.900 TS 45 999 0 75 75 30 75 1008 175 25 55 12 75 75 60 13 286
2009222N09262 2009 49 EP MM GUILLERMO 2009-08-13 09:00:00 TS 16.6839 -120.558 main 1256 1256 P_____________ EP102009 16.6647 -120.558 TS 50 996 0 82 82 37 82 12 12 1008 162 25 12 75 75 60 13 285
2009222N09262 2009 49 EP MM GUILLERMO 2009-08-13 12:00:00 TS 16.8333 -121.200 55 994 hurdat_epa main 1293 1293 O_____________ hurdat_epa EP102009 16.8000 -121.200 TS 55 994 0 90 90 45 90 25 25 1008 150 25 65 12 75 75 60 13 281
2009222N09262 2009 49 EP MM GUILLERMO 2009-08-13 15:00:00 TS 16.9265 -121.850 main 1339 1339 P_____________ EP102009 16.9073 -121.850 TS 57 993 0 90 90 52 75 25 25 1008 150 22 12 97 75 75 13 278
2009222N09262 2009 49 EP MM GUILLERMO 2009-08-13 18:00:00 TS 17.0000 -122.500 60 992 hurdat_epa main 1379 1379 O_____________ hurdat_epa EP102009 17.0000 -122.500 TS 60 992 0 90 90 60 60 25 25 20 25 1008 150 20 75 12 120 75 90 90 12 278
2009222N09262 2009 49 EP MM GUILLERMO 2009-08-13 21:00:00 TS 17.0972 -123.143 main 1420 1420 P_____________ EP102009 17.0997 -123.143 TS 60 992 0 90 90 60 60 25 25 22 25 1008 150 20 12 120 75 90 90 13 279
2009222N09262 2009 49 EP MM GUILLERMO 2009-08-14 00:00:00 TS 17.2000 -123.800 60 992 hurdat_epa main 1472 1472 O_____________ hurdat_epa EP102009 17.2000 -123.800 TS 60 992 0 90 90 60 60 25 25 25 25 1008 150 20 75 12 120 75 90 90 13 279
2009222N09262 2009 49 EP MM GUILLERMO 2009-08-14 03:00:00 TS 17.2998 -124.485 main 1516 1516 P_____________ EP102009 17.2998 -124.485 TS 62 989 0 90 75 60 67 27 27 27 27 1008 137 17 12 135 75 90 90 14 279
2009222N09262 2009 49 EP MM GUILLERMO 2009-08-14 06:00:00 TS 17.4000 -125.200 65 987 hurdat_epa main 1554 1554 O_____________ hurdat_epa EP102009 17.4000 -125.200 HU 65 987 1 90 60 60 75 30 30 30 30 15 15 15 15 1008 125 15 80 12 150 75 90 90 14 278
2009222N09262 2009 49 EP MM GUILLERMO 2009-08-14 09:00:00 TS 17.4948 -125.943 main 1595 1595 P_____________ EP102009 17.4923 -125.943 HU 67 985 1 90 60 65 77 30 30 30 30 15 15 15 15 1008 125 15 12 150 75 90 90 14 278
2009222N09262 2009 49 EP MM GUILLERMO 2009-08-14 12:00:00 TS 17.6000 -126.700 70 984 hurdat_epa main 1645 1645 O_____________ hurdat_epa EP102009 17.6000 -126.700 HU 70 984 1 90 60 70 80 30 30 30 30 15 15 15 15 1008 125 15 80 12 150 75 90 90 15 279
2009222N09262 2009 49 EP MM GUILLERMO 2009-08-14 15:00:00 TS 17.7231 -127.450 main 1698 1698 P_____________ EP102009 17.7422 -127.450 HU 77 978 1 95 70 75 90 40 35 35 40 20 20 20 20 1008 125 15 12 165 82 105 105 15 281
2009222N09262 2009 49 EP MM GUILLERMO 2009-08-14 18:00:00 TS 17.8667 -128.200 85 972 hurdat_epa main 1738 1738 O_____________ hurdat_epa EP102009 17.9000 -128.200 HU 85 972 2 100 80 80 100 50 40 40 50 25 25 25 25 1008 125 15 105 12 180 90 120 120 15 282
2009222N09262 2009 49 EP MM GUILLERMO 2009-08-14 21:00:00 TS 18.0305 -128.950 main 1795 1795 P_____________ EP102009 18.0497 -128.950 HU 90 968 2 100 80 80 102 50 40 40 50 25 25 25 25 1008 125 15 15 283
2009222N09262 2009 49 EP MM GUILLERMO 2009-08-15 00:00:00 TS 18.2000 -129.700 95 965 hurdat_epa main 1838 1838 O_____________ hurdat_epa EP102009 18.2000 -129.700 HU 95 965 2 100 80 80 105 50 40 40 50 25 25 25 25 1008 125 15 105 15 283
2009222N09262 2009 49 EP MM GUILLERMO 2009-08-15 03:00:00 TS 18.3573 -130.458 main 1892 1892 P_____________ EP102009 18.3573 -130.458 HU 97 962 3 95 70 70 97 55 42 42 47 27 27 27 27 1008 145 15 15 282
2009222N09262 2009 49 EP MM GUILLERMO 2009-08-15 06:00:00 TS 18.5000 -131.200 100 960 hurdat_epa main 1946 1946 O_____________ hurdat_epa EP102009 18.5000 -131.200 HU 100 960 3 90 60 60 90 60 45 45 45 30 30 30 30 1008 165 15 120 12 180 90 120 120 14 281
2009222N09262 2009 49 EP MM GUILLERMO 2009-08-15 09:00:00 TS 18.6189 -131.915 main 2001 2001 P_____________ EP102009 18.5997 -131.915 HU 105 957 3 95 70 65 95 60 45 45 45 32 32 32 32 1008 165 15 12 165 90 90 110 13 280
2009222N09262 2009 49 EP MM GUILLERMO 2009-08-15 12:00:00 TS 18.7333 -132.600 110 954 hurdat_epa main 2056 2056 O_____________ hurdat_epa EP102009 18.7000 -132.600 HU 110 954 3 100 80 70 100 60 45 45 45 35 35 35 35 1008 165 15 30 135 12 150 90 60 100 13 281
2009222N09262 2009 49 EP MM GUILLERMO 2009-08-15 15:00:00 TS 18.8588 -133.250 main 2107 2107 P_____________ EP102009 18.8421 -133.250 HU 105 956 3 95 75 65 95 60 47 47 47 32 32 32 32 1008 165 17 12 150 90 60 100 13 282
2009222N09262 2009 49 EP MM GUILLERMO 2009-08-15 18:00:00 TS 19.0000 -133.900 100 958 hurdat_epa main 2155 2118 O_____________ hurdat_epa EP102009 19.0000 -133.900 HU 100 958 3 90 70 60 90 60 50 50 50 30 30 30 30 1008 165 20 115 12 150 90 60 100 13 284
2009222N09262 2009 49 EP MM GUILLERMO 2009-08-15 21:00:00 TS 19.1665 -134.593 main 2118 2044 P_____________ EP102009 19.1498 -134.593 HU 97 959 3 90 70 60 95 55 45 45 55 30 30 30 30 1008 157 20 12 120 80 60 95 14 284
2009222N09262 2009 49 EP MM GUILLERMO 2009-08-16 00:00:00 TS 19.3333 -135.300 95 960 hurdat_epa main 2044 1969 O_____________ hurdat_epa EP102009 19.3000 -135.300 HU 95 960 2 90 70 60 100 50 40 40 60 30 30 30 30 1008 150 20 115 12 90 70 60 90 14 283
2009222N09262 2009 49 EP MM GUILLERMO 2009-08-16 03:00:00 TS 19.4690 -136.008 main 1969 1895 P_____________ EP102009 19.4498 -136.008 HU 92 962 2 97 65 60 95 50 40 40 55 30 30 30 30 1008 150 20 12 165 80 75 135 13 281
2009222N09262 2009 49 EP MM GUILLERMO 2009-08-16 06:00:00 TS 19.6000 -136.700 90 964 hurdat_epa main 1895 1832 O_____________ hurdat_epa EP102009 19.6000 -136.700 HU 90 964 2 105 60 60 90 50 40 40 50 30 30 30 30 1008 150 20 105 12 240 90 90 180 13 282
2009222N09262 2009 49 EP MM GUILLERMO 2009-08-16 09:00:00 TS 19.7473 -137.365 main 1821 1758 P_____________ EP102009 19.7498 -137.365 HU 87 968 2 105 60 60 90 50 40 40 50 30 30 30 30 1008 150 20 12 210 90 90 165 13 284
2009222N09262 2009 49 EP MM GUILLERMO 2009-08-16 12:00:00 TS 19.9000 -138.000 85 973 hurdat_epa main 1758 1695 O_____________ hurdat_epa EP102009 19.9000 -138.000 HU 85 973 2 105 60 60 90 50 40 40 50 30 30 30 30 1008 150 20 105 12 180 90 90 150 12 285
2009222N09262 2009 49 EP MM GUILLERMO 2009-08-16 15:00:00 TS 20.0571 -138.600 main 1695 1632 P_____________ EP102009 20.0571 -138.600 HU 80 976 1 102 67 52 82 55 40 35 45 30 25 25 30 1008 150 20 12 195 82 105 165 12 285
2009222N09262 2009 49 EP MM GUILLERMO 2009-08-16 18:00:00 TS 20.2000 -139.200 75 980 hurdat_epa main 1632 1570 O_____________ hurdat_epa EP102009 20.2000 -139.200 HU 75 980 1 100 75 45 75 60 40 30 40 30 20 20 30 1008 150 20 90 12 210 75 120 180 12 282
2009222N09262 2009 49 EP MM GUILLERMO 2009-08-16 21:00:00 TS 20.2997 -139.828 main 1570 1497 P_____________ EP102009 20.2997 -139.828 HU 70 983 1 95 75 45 75 60 40 30 40 30 20 20 30 1008 150 20 12 210 75 120 180 12 279
2009222N09262 2009 49 EP CP GUILLERMO 2009-08-17 00:00:00 TS 20.4000 -140.500 65 986 hurdat_epa main 1497 1424 O_____________ hurdat_epa EP102009 20.4000 -140.500 HU 65 986 1 90 75 45 75 60 40 30 40 30 20 20 30 1008 150 20 85 12 210 75 120 180 13 280
2009222N09262 2009 49 EP CP GUILLERMO 2009-08-17 03:00:00 TS 20.5322 -141.220 main 1424 1342 P_____________ EP102009 20.5347 -141.220 HU 60 989 0 90 60 35 75 52 32 22 37 1008 150 20 12 195 75 110 180 14 282
2009222N09262 2009 49 EP CP GUILLERMO 2009-08-17 06:00:00 TS 20.7000 -142.000 55 993 hurdat_epa main 1342 1261 O_____________ hurdat_epa EP102009 20.7000 -142.000 TS 55 993 0 90 45 25 75 45 25 15 35 1009 150 20 75 12 180 75 100 180 16 283
2009222N09262 2009 49 EP CP GUILLERMO 2009-08-17 09:00:00 TS 20.8915 -142.835 main 1261 1170 P_____________ EP102009 20.8773 -142.835 TS 52 995 0 82 37 17 67 40 32 1009 135 20 12 135 60 62 127 16 285
2009222N09262 2009 49 EP CP GUILLERMO 2009-08-17 12:00:00 TS 21.1333 -143.700 50 997 hurdat_epa main 1170 1093 O_____________ hurdat_epa EP102009 21.1000 -143.700 TS 50 997 0 75 30 10 60 35 30 1010 120 20 60 12 90 45 25 75 17 288
2009222N09262 2009 49 EP CP GUILLERMO 2009-08-17 15:00:00 TS 21.4173 -144.563 main 1083 1008 P_____________ EP102009 21.3623 -144.565 TS 47 998 0 67 30 10 52 1011 120 20 12 75 37 17 60 17 292
2009222N09262 2009 49 EP CP GUILLERMO 2009-08-17 18:00:00 TS 21.7667 -145.400 45 1000 hurdat_epa main 1010 939 O_____________ hurdat_epa EP102009 21.7000 -145.400 TS 45 1000 0 60 30 10 45 1012 120 20 55 12 60 30 10 45 17 296
2009222N09262 2009 49 EP CP GUILLERMO 2009-08-17 21:00:00 TS 22.1698 -146.207 main 942 889 P_____________ EP102009 22.1122 -146.188 TS 45 1000 0 60 30 10 45 1012 120 20 12 60 30 10 52 17 301
2009222N09262 2009 49 EP CP GUILLERMO 2009-08-18 00:00:00 TS 22.6333 -146.933 45 1000 hurdat_epa main 889 851 O_____________ hurdat_epa EP102009 22.6000 -146.900 TS 45 1000 0 60 30 10 45 1012 120 20 50 12 60 30 10 60 16 307
2009222N09262 2009 49 EP CP GUILLERMO 2009-08-18 03:00:00 TS 23.1071 -147.557 main 847 830 P_____________ EP102009 23.1122 -147.538 TS 45 1000 0 140 122 1012 157 105 12 60 30 10 60 15 314
2009222N09262 2009 49 EP CP GUILLERMO 2009-08-18 06:00:00 TS 23.6667 -148.100 45 1000 hurdat_epa main 836 827 O_____________ hurdat_epa EP102009 23.7000 -148.100 TS 45 1000 0 220 200 1012 195 190 50 12 60 30 10 60 16 323
2009222N09262 2009 49 EP CP GUILLERMO 2009-08-18 09:00:00 TS 24.3604 -148.598 main 836 828 P_____________ EP102009 24.3845 -148.601 TS 45 1000 0 215 190 1012 175 170 12 60 30 10 60 17 328
2009222N09262 2009 49 EP CP GUILLERMO 2009-08-18 12:00:00 TS 25.1000 -149.100 45 1000 hurdat_epa main 846 844 O_____________ hurdat_epa EP102009 25.1000 -149.100 TS 45 1000 0 210 180 1012 155 150 50 12 60 30 10 60 17 325
2009222N09262 2009 49 EP CP GUILLERMO 2009-08-18 15:00:00 TS 25.7816 -149.685 main 851 851 P_____________ EP102009 25.7574 -149.686 TS 45 1000 0 200 177 1012 155 150 12 135 120 17 321
2009222N09262 2009 49 EP CP GUILLERMO 2009-08-18 18:00:00 TS 26.4333 -150.300 45 1001 hurdat_epa main 853 853 O_____________ hurdat_epa EP102009 26.4000 -150.300 TS 45 1001 0 190 175 1012 155 150 50 12 210 180 17 320
2009222N09262 2009 49 EP CP GUILLERMO 2009-08-18 21:00:00 TS 27.0746 -150.893 main 873 867 P_____________ EP102009 27.0721 -150.893 TS 42 1002 0 185 170 1012 172 165 12 202 180 16 319
2009222N09262 2009 49 EP CP GUILLERMO 2009-08-19 00:00:00 TS 27.6667 -151.500 40 1003 hurdat_epa main 895 890 O_____________ hurdat_epa EP102009 27.7000 -151.500 TS 40 1003 0 180 165 1012 190 180 45 12 195 180 16 315
2009222N09262 2009 49 EP CP GUILLERMO 2009-08-19 03:00:00 TS 28.1939 -152.138 main 915 911 P_____________ EP102009 28.2373 -152.143 TS 37 1004 0 170 155 1012 190 180 12 192 177 15 311
2009222N09262 2009 49 EP CP GUILLERMO 2009-08-19 06:00:00 TS 28.6667 -152.800 35 1006 hurdat_epa main 939 936 O_____________ hurdat_epa EP102009 28.7000 -152.800 TS 35 1006 0 160 145 1012 190 180 45 12 190 175 15 308
2009222N09262 2009 49 EP CP GUILLERMO 2009-08-19 09:00:00 TS 29.1124 -153.491 main 946 946 P_____________ EP102009 29.1073 -153.458 TS 35 1007 0 155 140 1012 175 165 12 175 160 15 306
2009222N09262 2009 49 EP CP GUILLERMO 2009-08-19 12:00:00 TS 29.5333 -154.167 35 1009 hurdat_epa main 957 957 O_____________ hurdat_epa EP102009 29.5000 -154.100 TS 35 1009 0 150 135 1012 160 150 45 12 160 145 14 306
2009222N09262 2009 49 EP CP GUILLERMO 2009-08-19 15:00:00 TS 29.9447 -154.795 main 977 977 P_____________ EP102009 29.9423 -154.723 TS 32 1010 -1 1013 155 135 13 309
2009222N09262 2009 49 EP CP GUILLERMO 2009-08-19 18:00:00 MX 30.3727 -155.355 30 1012 hurdat_epa main 1005 1005 O_____________ hurdat_epa EP102009 30.4000 -155.300 LO 30 1012 -3 1014 150 120 40 13 314
2009222N09262 2009 49 EP CP GUILLERMO 2009-08-19 21:00:00 MX 30.8384 -155.866 main 1028 1028 P_____________ EP102009 30.8573 -155.830 LO 30 1013 -3 1014 135 105 12 318
2009222N09262 2009 49 EP CP GUILLERMO 2009-08-20 00:00:00 MX 31.3000 -156.322 30 1014 hurdat_epa main 1069 1066 O_____________ hurdat_epa EP102009 31.3000 -156.300 LO 30 1014 -3 1014 120 90 40 12 150 150 11 318
2009222N09262 2009 49 EP CP GUILLERMO 2009-08-20 03:00:00 DS 31.6849 -156.745 main 1102 1100 P_____________ EP102009 31.6849 -156.745 LO 30 1015 -3 932 10 320
2009222N09262 2009 49 EP CP GUILLERMO 2009-08-20 06:00:00 DS 32.1000 -157.100 30 1016 hurdat_epa main 1137 1137 O_____________ hurdat_epa EP102009 32.1000 -157.100 LO 30 1016 -3 850 11 331
2009222N09262 2009 49 EP CP GUILLERMO 2009-08-20 09:00:00 DS 32.6273 -157.353 main 1187 1187 P_____________ EP102009 32.6273 -157.353 LO 35 1015 -3 60 60 850 12 343
2009222N09262 2009 49 EP CP GUILLERMO 2009-08-20 12:00:00 ET 33.2000 -157.500 40 1015 hurdat_epa main 1251 1251 O_____________ hurdat_epa EP102009 33.2000 -157.500 EX 40 1015 -4 120 120 850 12 350
2009222N09262 2009 49 EP CP GUILLERMO 2009-08-20 15:00:00 ET 33.7724 -157.588 main 1316 1316 P_____________ EP102009 33.7724 -157.588 EX 40 1015 -4 120 120 850 11 356
2009222N09262 2009 49 EP CP GUILLERMO 2009-08-20 18:00:00 ET 34.3000 -157.600 40 1015 hurdat_epa main 1372 1372 O_____________ hurdat_epa EP102009 34.3000 -157.600 EX 40 1015 -4 120 120 850 10 0
2009222N09262 2009 49 EP CP GUILLERMO 2009-08-20 21:00:00 ET 34.7450 -157.565 main 1416 1416 P_____________ EP102009 34.7450 -157.565 EX 40 1015 -4 120 120 850 8 6
2009222N09262 2009 49 EP CP GUILLERMO 2009-08-21 00:00:00 ET 35.1000 -157.500 40 1015 hurdat_epa main 1461 1461 O_____________ hurdat_epa EP102009 35.1000 -157.500 EX 40 1015 -4 120 120 850 6 8
2009222N09262 2009 49 EP CP GUILLERMO 2009-08-21 03:00:00 ET 35.3800 -157.457 main 1494 1494 P_____________ EP102009 35.3800 -157.457 EX 37 1016 -4 105 105 850 5 9
2009222N09262 2009 49 EP CP GUILLERMO 2009-08-21 06:00:00 ET 35.6000 -157.400 35 1017 hurdat_epa main 1518 1518 O_____________ hurdat_epa EP102009 35.6000 -157.400 EX 35 1017 -4 90 90 850 4 16
2009222N09262 2009 49 EP CP GUILLERMO 2009-08-21 09:00:00 ET 35.8075 -157.307 main 1541 1541 P_____________ EP102009 35.8075 -157.307 EX 32 1018 -4 850 4 22
2009222N09262 2009 49 EP CP GUILLERMO 2009-08-21 12:00:00 ET 36.0000 -157.200 30 1019 hurdat_epa main 1564 1564 O_____________ hurdat_epa EP102009 36.0000 -157.200 EX 30 1019 -4 850 4 23
2009222N09262 2009 49 EP CP GUILLERMO 2009-08-21 15:00:00 ET 36.2000 -157.100 main 1588 1588 P_____________ EP102009 36.2000 -157.100 EX 30 1019 -4 850 4 22
2009222N09262 2009 49 EP CP GUILLERMO 2009-08-21 18:00:00 ET 36.4000 -157.000 30 1020 hurdat_epa main 1611 1611 O_____________ hurdat_epa EP102009 36.4000 -157.000 EX 30 1020 -4 850 4 22
2009222N09262 2009 49 EP CP GUILLERMO 2009-08-21 21:00:00 ET 36.6000 -156.900 main 1634 1634 P_____________ EP102009 36.6000 -156.900 EX 30 1020 -4 4 21
2009222N09262 2009 49 EP CP GUILLERMO 2009-08-22 00:00:00 ET 36.8000 -156.800 30 1021 hurdat_epa main 1658 1658 O_____________ hurdat_epa EP102009 36.8000 -156.800 EX 30 1021 -4 4 21
2009222N09262 2009 49 EP CP GUILLERMO 2009-08-22 03:00:00 ET 37.0000 -156.707 main 1681 1681 P_____________ EP102009 37.0000 -156.707 EX 30 1021 -4 4 21
2009222N09262 2009 49 EP CP GUILLERMO 2009-08-22 06:00:00 ET 37.2000 -156.600 30 1021 hurdat_epa main 1704 1704 O_____________ hurdat_epa EP102009 37.2000 -156.600 EX 30 1021 -4 4 26
2009222N09262 2009 49 EP CP GUILLERMO 2009-08-22 09:00:00 ET 37.3849 -156.472 main 1728 1728 P_____________ EP102009 37.3849 -156.472 EX 30 1021 -4 5 31
2009222N09262 2009 49 EP CP GUILLERMO 2009-08-22 12:00:00 ET 37.6000 -156.300 30 1021 hurdat_epa main 1753 1753 O_____________ hurdat_epa EP102009 37.6000 -156.300 EX 30 1021 -4 6 31
2009222N09262 2009 49 EP CP GUILLERMO 2009-08-22 15:00:00 ET 37.8773 -156.095 main 1789 1789 P_____________ EP102009 37.8773 -156.095 EX 30 1021 -4 7 33
2009222N09262 2009 49 EP CP GUILLERMO 2009-08-22 18:00:00 ET 38.2000 -155.800 30 1021 hurdat_epa main 1827 1827 O_____________ hurdat_epa EP102009 38.2000 -155.800 EX 30 1021 -4 9 40
2009222N09262 2009 49 EP CP GUILLERMO 2009-08-22 21:00:00 ET 38.5348 -155.402 main 1867 1842 P_____________ EP102009 38.5348 -155.402 EX 30 1021 -4 10 45
2009222N09262 2009 49 EP CP GUILLERMO 2009-08-23 00:00:00 ET 38.9000 -154.900 30 1021 hurdat_epa main 1845 1824 O_____________ hurdat_epa EP102009 38.9000 -154.900 EX 30 1021 -4 11 48
2009222N09262 2009 49 EP CP GUILLERMO 2009-08-23 03:00:00 ET 39.2932 -154.322 main 1828 1807 P_____________ EP102009 39.2932 -154.322 EX 30 1021 -4 12 49
2009222N09262 2009 49 EP CP GUILLERMO 2009-08-23 06:00:00 ET 39.7000 -153.700 30 1021 hurdat_epa main 1810 O_____________ hurdat_epa EP102009 39.7000 -153.700 EX 30 1021 -4 850 13 50

IBTrACS Databaseについて

本データベースは、米国NOAAが公開する1842年以降の世界の熱帯低気圧のベストトラックデータアーカイブInternational Best Track Archive for Climate Stewardship (IBTrACS)を、ウェブで閲覧しやすい形式に変換したものです。

最終更新日:2021-10-08